createdAt,value
2023-01-13T06:55:59.183Z,90.61
2023-01-13T06:56:59.111Z,90.51
2023-01-13T06:57:59.112Z,90.31
2023-01-13T06:58:59.123Z,90.61
2023-01-13T06:59:59.094Z,91.03
2023-01-13T07:01:07.883Z,91.44
2023-01-13T07:01:59.182Z,91.64
2023-01-13T07:02:59.083Z,91.75
2023-01-13T07:03:59.062Z,92.06
2023-01-13T07:04:59.070Z,92.31
2023-01-13T07:05:59.068Z,92.21
2023-01-13T07:06:59.103Z,92.61
2023-01-13T07:07:59.009Z,92.93
2023-01-13T07:09:03.003Z,93.44
2023-01-13T07:09:59.007Z,94.06
2023-01-13T07:10:59.004Z,95.20
2023-01-13T07:11:59.000Z,95.92
2023-01-13T07:12:58.993Z,94.10
2023-01-13T07:13:58.972Z,94.42
2023-01-13T07:14:58.978Z,94.72
2023-01-13T07:15:59.153Z,95.24
2023-01-13T07:16:58.910Z,95.34
2023-01-13T07:17:58.901Z,96.27
2023-01-13T07:18:58.892Z,95.96
2023-01-13T07:19:58.876Z,94.52
2023-01-13T07:22:21.684Z,93.79
2023-01-13T07:23:21.676Z,94.21
2023-01-13T07:24:21.646Z,93.69
2023-01-13T07:25:21.649Z,93.90
2023-01-13T07:26:21.596Z,94.31
2023-01-13T07:27:21.669Z,94.10
2023-01-13T07:28:21.588Z,93.18
2023-01-13T07:29:21.572Z,92.66
2023-01-13T07:30:21.630Z,92.41
2023-01-13T07:31:21.668Z,91.58
2023-01-13T07:32:21.597Z,91.07
2023-01-13T07:33:21.722Z,91.38
2023-01-13T07:34:21.536Z,92.10
2023-01-13T07:35:24.511Z,92.31
2023-01-13T07:36:21.535Z,92.93
2023-01-13T07:37:21.491Z,92.72
2023-01-13T07:38:21.467Z,92.31
2023-01-13T07:39:21.478Z,91.89
2023-01-13T07:40:21.461Z,91.89
2023-01-13T07:41:21.471Z,92.10
2023-01-13T07:42:21.523Z,91.48
2023-01-13T07:44:44.958Z,90.04
2023-01-13T07:45:44.914Z,90.31
2023-01-13T07:46:44.903Z,89.89
2023-01-13T07:47:44.916Z,88.65
2023-01-13T07:48:44.842Z,88.86
2023-01-13T07:49:44.850Z,88.96
2023-01-13T07:50:44.824Z,88.96
2023-01-13T07:51:44.829Z,88.45
2023-01-13T07:52:44.841Z,88.65
2023-01-13T07:53:44.805Z,88.76
2023-01-13T07:56:10.212Z,88.41
2023-01-13T07:57:09.975Z,88.20
2023-01-13T07:58:09.974Z,87.48
2023-01-13T07:59:09.971Z,87.27
2023-01-13T08:01:10.061Z,86.97
2023-01-13T08:02:10.495Z,87.17
2023-01-13T08:03:09.943Z,87.69
2023-01-13T08:04:09.927Z,86.97
2023-01-13T08:05:09.924Z,86.97
2023-01-13T08:06:09.917Z,87.38
2023-01-13T08:07:09.876Z,87.59
2023-01-13T08:08:09.847Z,87.79
2023-01-13T08:09:12.948Z,87.69
2023-01-13T08:10:09.873Z,87.48
2023-01-13T08:11:09.823Z,87.99
2023-01-13T08:12:09.835Z,88.31
2023-01-13T08:13:09.825Z,87.99
2023-01-13T08:14:09.785Z,88.51
2023-01-13T08:15:09.812Z,88.82
2023-01-13T08:16:09.845Z,88.92
2023-01-13T08:17:09.800Z,88.82
2023-01-13T08:19:33.605Z,89.23
2023-01-13T08:20:33.563Z,89.34
2023-01-13T08:21:33.516Z,89.13
2023-01-13T08:22:33.535Z,88.51
2023-01-13T08:23:33.527Z,89.03
2023-01-13T08:24:33.538Z,89.13
2023-01-13T08:25:33.503Z,89.34
2023-01-13T08:26:33.497Z,88.82
2023-01-13T08:27:33.469Z,88.92
2023-01-13T08:28:33.511Z,88.92
2023-01-13T08:30:57.787Z,89.65
2023-01-13T08:31:57.714Z,89.95
2023-01-13T08:32:57.643Z,90.06
2023-01-13T08:33:57.635Z,90.06
2023-01-13T08:34:57.642Z,90.10
2023-01-13T08:35:57.679Z,89.79
2023-01-13T08:36:57.617Z,90.20
2023-01-13T08:37:57.580Z,90.72
2023-01-13T08:38:57.566Z,90.20
2023-01-13T08:39:57.542Z,90.26
2023-01-13T08:40:57.536Z,90.37
2023-01-13T08:41:57.545Z,90.47
2023-01-13T08:42:57.533Z,90.57
2023-01-13T08:44:00.564Z,90.06
2023-01-13T08:44:57.519Z,90.47
2023-01-13T08:45:57.529Z,89.95
2023-01-13T08:46:57.506Z,90.06
2023-01-13T08:47:57.458Z,90.47
2023-01-13T08:48:57.480Z,90.67
2023-01-13T08:49:57.443Z,90.37
2023-01-13T08:50:57.557Z,90.47
2023-01-13T08:53:22.806Z,90.99
2023-01-13T08:54:21.307Z,90.67
2023-01-13T08:55:21.276Z,90.78
2023-01-13T08:56:21.277Z,90.99
2023-01-13T08:57:21.265Z,90.88
2023-01-13T08:58:21.230Z,91.05
2023-01-13T08:59:21.204Z,90.94
2023-01-13T09:00:21.191Z,90.73
2023-01-13T09:01:21.341Z,90.64
2023-01-13T09:02:21.352Z,90.73
2023-01-13T09:03:21.194Z,90.64
2023-01-13T09:04:21.186Z,90.01
2023-01-13T09:05:21.181Z,90.22
2023-01-13T09:06:24.130Z,89.50
2023-01-13T09:07:21.135Z,89.50
2023-01-13T09:08:21.136Z,89.19
2023-01-13T09:09:21.132Z,89.91
2023-01-13T09:10:21.106Z,89.40
2023-01-13T09:11:21.104Z,89.19
2023-01-13T09:12:21.071Z,89.40
2023-01-13T09:13:21.194Z,89.29
2023-01-13T09:14:21.035Z,89.19
2023-01-13T09:15:21.032Z,89.61
2023-01-13T09:16:21.068Z,89.29
2023-01-13T09:17:21.028Z,88.95
2023-01-13T09:18:21.034Z,88.74
2023-01-13T09:19:21.020Z,88.53
2023-01-13T09:22:04.347Z,87.67
2023-01-13T09:23:04.262Z,87.42
2023-01-13T09:24:04.259Z,86.87
2023-01-13T09:25:04.266Z,86.46
2023-01-13T09:26:04.322Z,85.80
2023-01-13T09:27:04.226Z,85.18
2023-01-13T09:28:04.244Z,84.84
2023-01-13T09:29:04.264Z,84.84
2023-01-13T09:30:04.213Z,84.42
2023-01-13T09:31:04.266Z,85.04
2023-01-13T09:32:04.196Z,85.00
2023-01-13T09:33:04.158Z,84.53
2023-01-13T09:34:04.154Z,84.74
2023-01-13T09:35:15.374Z,84.88
2023-01-13T09:36:04.178Z,85.08
2023-01-13T09:37:04.306Z,85.74
2023-01-13T09:38:04.151Z,86.25
2023-01-13T09:39:04.095Z,86.46
2023-01-13T09:40:04.139Z,86.35
2023-01-13T09:41:04.073Z,86.40
2023-01-13T09:42:04.062Z,86.80
2023-01-13T09:43:04.046Z,87.01
2023-01-13T09:44:04.077Z,87.42
2023-01-13T09:45:04.055Z,88.04
2023-01-13T09:46:04.100Z,87.94
2023-01-13T09:47:04.007Z,88.24
2023-01-13T09:48:04.080Z,88.66
2023-01-13T09:50:45.865Z,87.52
2023-01-13T09:51:45.987Z,88.04
2023-01-13T09:52:45.814Z,88.86
2023-01-13T09:53:45.943Z,88.96
2023-01-13T09:54:45.806Z,90.09
2023-01-13T09:57:24.355Z,89.11
2023-01-13T09:58:24.286Z,89.42
2023-01-13T09:59:24.271Z,88.80
2023-01-13T10:00:24.291Z,88.49
2023-01-13T10:01:24.309Z,88.18
2023-01-13T10:02:24.242Z,88.39
2023-01-13T10:03:24.285Z,88.70
2023-01-13T10:04:24.285Z,88.80
2023-01-13T10:05:24.190Z,88.59
2023-01-13T10:06:24.211Z,88.59
2023-01-13T10:07:24.180Z,88.49
2023-01-13T10:08:24.267Z,88.90
2023-01-13T10:09:24.172Z,89.01
2023-01-13T10:10:27.183Z,88.59
2023-01-13T10:11:24.179Z,88.90
2023-01-13T10:12:24.122Z,88.90
2023-01-13T10:13:24.117Z,87.98
2023-01-13T10:14:24.112Z,88.18
2023-01-13T10:17:22.013Z,88.24
2023-01-13T10:18:21.990Z,88.45
2023-01-13T10:19:22.136Z,87.63
2023-01-13T10:20:21.954Z,87.69
2023-01-13T10:21:21.961Z,86.83
2023-01-13T10:22:21.968Z,87.24
2023-01-13T10:23:21.906Z,87.13
2023-01-13T10:24:21.921Z,85.49
2023-01-13T10:25:21.908Z,85.49
2023-01-13T10:26:21.899Z,85.18
2023-01-13T10:27:21.865Z,85.49
2023-01-13T10:28:21.888Z,85.76
2023-01-13T10:29:21.846Z,85.86
2023-01-13T10:30:24.863Z,85.60
2023-01-13T10:31:21.864Z,85.80
2023-01-13T10:32:30.436Z,85.49
2023-01-13T10:33:21.826Z,84.47
2023-01-13T10:34:21.809Z,84.67
2023-01-13T10:35:21.858Z,84.98
2023-01-13T10:36:21.802Z,85.80
2023-01-13T10:37:21.825Z,85.80
2023-01-13T10:38:22.896Z,86.42
2023-01-13T10:39:21.773Z,85.49
2023-01-13T10:41:47.866Z,85.70
2023-01-13T10:42:47.625Z,86.11
2023-01-13T10:43:55.651Z,86.42
2023-01-13T10:44:47.603Z,86.11
2023-01-13T10:45:47.625Z,86.62
2023-01-13T10:46:47.647Z,87.79
2023-01-13T10:47:47.578Z,88.10
2023-01-13T10:48:47.724Z,88.41
2023-01-13T10:49:47.577Z,89.03
2023-01-13T10:50:47.570Z,88.82
2023-01-13T10:51:47.565Z,88.62
2023-01-13T10:52:47.562Z,88.82
2023-01-13T10:53:47.564Z,88.51
2023-01-13T10:54:50.495Z,89.03
2023-01-13T10:55:49.543Z,89.03
2023-01-13T10:56:47.511Z,88.92
2023-01-13T10:57:47.522Z,88.31
2023-01-13T10:58:47.501Z,88.20
2023-01-13T10:59:47.490Z,88.31
2023-01-13T11:00:47.486Z,87.55
2023-01-13T11:01:47.514Z,87.82
2023-01-13T11:02:47.483Z,86.58
2023-01-13T11:03:47.492Z,85.82
2023-01-13T11:04:47.423Z,85.58
